createdAt,value
2022-08-03T00:05:08.350Z,26.56
2022-08-03T00:10:10.163Z,26.53
2022-08-03T00:15:11.393Z,26.65
2022-08-03T00:20:14.162Z,26.26
2022-08-03T00:25:12.317Z,26.41
2022-08-03T00:30:10.145Z,26.37
2022-08-03T00:35:10.546Z,26.26
2022-08-03T00:40:17.913Z,25.75
2022-08-03T00:45:16.078Z,26.40
2022-08-03T00:50:17.493Z,26.24
2022-08-03T00:55:57.254Z,25.90
2022-08-03T01:01:07.931Z,26.00
2022-08-03T01:06:12.999Z,26.05
2022-08-03T01:11:28.390Z,25.63
2022-08-03T01:16:40.354Z,24.95
2022-08-03T01:22:00.100Z,25.26
2022-08-03T01:27:15.747Z,24.59
2022-08-03T01:32:53.659Z,25.24
2022-08-03T01:37:43.998Z,25.26
2022-08-03T01:42:48.845Z,25.56
2022-08-03T01:47:50.106Z,25.42
2022-08-03T01:53:08.442Z,25.73
2022-08-03T01:58:34.752Z,25.62
2022-08-03T02:04:00.697Z,26.06
2022-08-03T02:09:03.882Z,25.40
2022-08-03T02:14:04.538Z,25.91
2022-08-03T02:19:23.268Z,25.84
2022-08-03T02:24:20.710Z,26.16
2022-08-03T02:29:39.402Z,26.06
2022-08-03T02:34:46.118Z,26.14
2022-08-03T02:39:53.757Z,26.28
2022-08-03T02:44:53.582Z,25.89
2022-08-03T02:49:56.316Z,26.29
2022-08-03T02:54:58.843Z,26.41
2022-08-03T03:00:03.314Z,26.13
2022-08-03T03:05:54.740Z,26.33
2022-08-03T03:10:21.474Z,26.06
2022-08-03T03:15:20.473Z,26.23
2022-08-03T03:20:29.096Z,26.28
2022-08-03T03:26:01.715Z,26.27
2022-08-03T03:30:59.391Z,25.82
2022-08-03T03:36:00.686Z,26.36
2022-08-03T03:40:58.592Z,26.11
2022-08-03T03:45:57.040Z,26.50
2022-08-03T03:50:57.774Z,26.25
2022-08-03T03:55:59.718Z,26.40
2022-08-03T04:01:02.774Z,26.12
2022-08-03T04:06:30.617Z,26.48
2022-08-03T04:11:50.328Z,26.43
2022-08-03T04:16:51.256Z,26.62
2022-08-03T04:21:52.256Z,26.38
2022-08-03T04:26:52.861Z,26.34
2022-08-03T04:31:53.163Z,27.02
2022-08-03T04:36:58.097Z,26.68
2022-08-03T04:42:08.309Z,26.99
2022-08-03T04:47:06.987Z,27.03
2022-08-03T04:52:07.366Z,27.28
2022-08-03T04:57:09.667Z,27.42
2022-08-03T05:02:09.752Z,28.13
2022-08-03T05:07:12.326Z,27.77
2022-08-03T05:12:09.969Z,28.36
2022-08-03T05:17:07.905Z,28.54
2022-08-03T05:22:05.373Z,28.52
2022-08-03T05:27:08.581Z,28.55
2022-08-03T05:32:08.457Z,28.52
2022-08-03T05:37:07.018Z,29.61
2022-08-03T05:42:06.254Z,31.69
2022-08-03T05:47:04.218Z,34.27
2022-08-03T05:52:13.799Z,35.96
2022-08-03T09:19:13.727Z,38.15
2022-08-03T09:24:37.215Z,37.97
2022-08-03T09:30:33.335Z,36.93
2022-08-03T09:35:57.829Z,37.82
2022-08-03T09:41:41.465Z,37.52
2022-08-03T09:47:00.675Z,38.13
2022-08-03T09:52:38.495Z,37.76
2022-08-03T09:57:42.348Z,38.64
2022-08-03T10:02:46.960Z,38.71
2022-08-03T10:07:54.146Z,40.08
2022-08-03T10:12:52.442Z,39.84
2022-08-03T10:17:50.378Z,39.58
2022-08-03T10:22:48.801Z,40.43
2022-08-03T10:28:06.118Z,41.03
2022-08-03T10:33:12.307Z,40.66
2022-08-03T10:38:33.240Z,39.90
2022-08-03T10:43:48.157Z,39.43
2022-08-03T10:48:50.233Z,38.41
2022-08-03T10:54:29.783Z,38.66
2022-08-03T10:59:59.471Z,38.50
2022-08-03T11:05:31.544Z,37.29
2022-08-03T11:10:33.555Z,36.62
2022-08-03T11:15:35.918Z,36.13
2022-08-03T11:20:51.957Z,35.92
2022-08-03T11:26:44.594Z,36.09
2022-08-03T11:31:52.055Z,35.92
2022-08-03T11:37:22.667Z,35.27
2022-08-03T11:43:22.218Z,34.58
2022-08-03T11:48:24.665Z,34.40
2022-08-03T11:53:25.321Z,33.82
2022-08-03T11:59:13.150Z,34.01
2022-08-03T12:03:47.729Z,33.86
2022-08-03T12:08:47.545Z,33.60
2022-08-03T12:14:45.594Z,34.35
2022-08-03T12:20:08.558Z,33.85
2022-08-03T12:25:42.228Z,34.16
2022-08-03T12:36:44.678Z,35.06
2022-08-03T12:41:54.546Z,35.31
2022-08-03T12:46:58.737Z,35.02
2022-08-03T12:52:00.017Z,34.43
2022-08-03T12:57:02.703Z,34.31
2022-08-03T13:02:04.585Z,33.74
2022-08-03T13:07:14.319Z,33.96
2022-08-03T13:12:16.857Z,33.92
2022-08-03T13:17:16.060Z,33.52
2022-08-03T13:22:22.019Z,34.22
2022-08-03T13:28:04.864Z,34.30
2022-08-03T13:32:38.743Z,34.41
2022-08-03T13:37:36.888Z,34.60
2022-08-03T13:42:36.151Z,34.23
2022-08-03T13:47:36.391Z,34.73
2022-08-03T13:52:38.034Z,34.11
2022-08-03T13:58:03.131Z,34.44
2022-08-03T14:02:56.174Z,34.58
2022-08-03T14:07:58.284Z,34.25
2022-08-03T14:13:03.032Z,33.81
2022-08-03T14:18:00.334Z,33.36
2022-08-03T14:23:03.396Z,33.46
2022-08-03T14:28:01.252Z,33.57
2022-08-03T14:33:00.938Z,33.30
2022-08-03T14:37:59.185Z,32.89
2022-08-03T14:43:05.770Z,33.10
2022-08-03T14:50:28.787Z,33.09
2022-08-03T14:54:27.364Z,32.50
2022-08-03T14:59:57.367Z,32.59
2022-08-03T15:05:12.517Z,32.72
2022-08-03T15:15:36.099Z,32.22
2022-08-03T15:20:43.959Z,32.67
2022-08-03T15:26:29.552Z,32.54
2022-08-03T15:31:01.931Z,32.35
2022-08-03T15:36:02.835Z,32.34
2022-08-03T15:41:02.633Z,32.48
2022-08-03T15:46:29.142Z,32.59
2022-08-03T15:51:30.302Z,32.03
2022-08-03T15:56:29.424Z,32.68
2022-08-03T16:01:28.967Z,32.63
2022-08-03T16:06:29.823Z,32.38
2022-08-03T16:11:38.399Z,31.98
2022-08-03T16:16:39.312Z,32.43
2022-08-03T16:21:38.658Z,32.39
2022-08-03T16:26:51.244Z,32.25
2022-08-03T16:31:51.273Z,32.22
2022-08-03T16:36:50.559Z,32.11
2022-08-03T16:41:53.854Z,31.57
2022-08-03T16:46:57.695Z,32.23
2022-08-03T16:51:57.513Z,32.25
2022-08-03T16:57:00.219Z,32.39
2022-08-03T17:02:06.592Z,32.36
2022-08-03T17:07:10.752Z,31.77
2022-08-03T17:12:11.779Z,32.20
2022-08-03T17:17:18.923Z,31.97
2022-08-03T17:22:19.899Z,32.17
2022-08-03T17:28:48.991Z,32.25
2022-08-03T17:32:42.579Z,32.33
2022-08-03T17:37:57.495Z,32.17
2022-08-03T17:42:56.575Z,32.16
2022-08-03T17:47:58.012Z,32.20
2022-08-03T17:53:07.901Z,32.33
2022-08-03T17:58:20.969Z,32.11
2022-08-03T18:03:27.497Z,32.22
2022-08-03T18:08:31.153Z,32.02
2022-08-03T18:13:34.250Z,31.58
2022-08-03T18:18:37.832Z,31.50
2022-08-03T18:23:37.720Z,31.25
2022-08-03T18:28:37.872Z,31.03
2022-08-03T18:34:18.213Z,31.13
2022-08-03T18:38:57.376Z,31.10
2022-08-03T18:44:08.694Z,30.92
2022-08-03T18:49:13.602Z,30.70
2022-08-03T18:54:51.070Z,30.31
2022-08-03T18:59:58.953Z,30.37
2022-08-03T19:05:03.749Z,30.27
2022-08-03T19:10:04.632Z,30.29
2022-08-03T19:15:12.409Z,30.03
2022-08-03T19:20:13.934Z,30.17
2022-08-03T19:25:13.149Z,30.16
2022-08-03T19:30:31.870Z,29.72
2022-08-03T19:35:52.109Z,29.65
2022-08-03T19:40:51.038Z,29.70
2022-08-03T19:46:04.704Z,29.86
2022-08-03T19:51:04.761Z,29.42
2022-08-03T19:56:12.216Z,29.35
2022-08-03T20:01:21.179Z,29.16
2022-08-03T20:06:22.513Z,29.10
2022-08-03T20:11:32.856Z,29.27
2022-08-03T20:16:42.767Z,29.21
2022-08-03T20:21:43.244Z,29.16
2022-08-03T20:26:46.002Z,28.83
2022-08-03T20:31:49.366Z,28.81
2022-08-03T20:36:46.574Z,28.84
2022-08-03T20:41:43.879Z,28.87
2022-08-03T20:46:54.962Z,28.83
2022-08-03T20:51:59.177Z,28.55
2022-08-03T20:56:58.247Z,28.69
2022-08-03T21:01:59.564Z,28.61
2022-08-03T21:07:02.491Z,28.39
2022-08-03T21:12:06.486Z,28.24
2022-08-03T21:17:25.016Z,28.18
2022-08-03T21:22:29.790Z,28.34
2022-08-03T21:27:30.208Z,28.22
2022-08-03T21:32:33.021Z,28.05
2022-08-03T21:37:31.102Z,27.62
2022-08-03T21:42:28.065Z,28.04
2022-08-03T21:47:26.389Z,27.94
2022-08-03T21:52:35.593Z,27.27
2022-08-03T21:57:34.770Z,27.65
2022-08-03T22:02:35.591Z,27.50
2022-08-03T22:07:33.379Z,27.62
2022-08-03T22:12:31.246Z,27.36
2022-08-03T22:17:55.986Z,27.63
2022-08-03T22:22:56.052Z,27.31
2022-08-03T22:27:54.513Z,27.36
2022-08-03T22:32:55.518Z,27.40
2022-08-03T22:37:54.851Z,27.25
2022-08-03T22:42:53.245Z,27.24
2022-08-03T22:47:55.113Z,27.11
2022-08-03T22:52:54.141Z,26.76
2022-08-03T22:57:56.136Z,26.89
2022-08-03T23:02:59.913Z,26.72
2022-08-03T23:07:57.355Z,26.38
2022-08-03T23:12:55.657Z,26.73
2022-08-03T23:17:57.506Z,26.69
2022-08-03T23:22:57.510Z,26.69
2022-08-03T23:28:05.052Z,26.71
2022-08-03T23:33:03.908Z,26.41
2022-08-03T23:38:04.571Z,25.98
2022-08-03T23:43:45.202Z,24.91
2022-08-03T23:48:37.108Z,25.12
2022-08-03T23:53:40.583Z,25.24
2022-08-03T23:58:55.246Z,25.27
